Time;durP1;ratioP1;P1;durP2;ratioP2;P2;SDS_P1;SDS_P2;PMS_P1;PMS_P2;Temp;Humidity;BMP_temperature;BMP_pressure;BME280_temperature;BME280_humidity;BME280_pressure;Samples;Min_cycle;Max_cycle;Signal;HPM_P1;HPM_P2
2021/03/29 00:00:25;;;;;;;18.55;6.35;;;;;;;9.30;78.38;102241.53;4951126;28;20068;-77
2021/03/29 00:02:51;;;;;;;20.27;5.50;;;;;;;9.33;77.99;102239.59;4969881;28;20081;-76
2021/03/29 00:05:19;;;;;;;22.50;8.40;;;;;;;9.33;78.12;102247.66;4956725;28;20046;-77
2021/03/29 00:07:49;;;;;;;12.90;4.07;;;;;;;9.56;76.33;102237.94;4951180;28;20038;-76
2021/03/29 00:10:15;;;;;;;16.05;3.58;;;;;;;9.56;75.48;102241.50;4952168;28;20085;-76
2021/03/29 00:12:44;;;;;;;11.68;3.35;;;;;;;9.57;74.97;102235.19;4954028;28;20103;-76
2021/03/29 00:15:14;;;;;;;20.60;3.50;;;;;;;9.66;73.79;102236.66;4933998;28;20082;-77
2021/03/29 00:17:41;;;;;;;20.15;4.38;;;;;;;9.67;73.31;102239.28;4952353;28;20061;-76
2021/03/29 00:20:29;;;;;;;20.23;4.68;;;;;;;9.82;72.93;102239.63;4952145;28;20046;-76
2021/03/29 00:22:57;;;;;;;8.60;3.13;;;;;;;9.89;72.34;102235.81;4953499;28;20065;-77
2021/03/29 00:25:23;;;;;;;14.98;3.53;;;;;;;9.92;71.60;102235.72;4951458;28;20045;-76
2021/03/29 00:27:49;;;;;;;14.15;3.38;;;;;;;9.89;71.83;102236.69;4974177;28;20073;-77
2021/03/29 00:30:30;;;;;;;12.48;3.50;;;;;;;9.84;71.79;102233.31;4966109;28;20121;-76
2021/03/29 00:32:57;;;;;;;11.48;3.78;;;;;;;9.95;71.22;102235.56;4952782;28;20034;-77
2021/03/29 00:35:24;;;;;;;19.42;5.65;;;;;;;9.92;70.96;102235.72;4952840;28;20035;-76
2021/03/29 00:37:53;;;;;;;18.98;4.65;;;;;;;9.89;71.37;102228.63;4938702;28;20070;-76
2021/03/29 00:40:19;;;;;;;14.38;4.65;;;;;;;10.04;70.63;102240.63;4963628;28;20031;-76
2021/03/29 00:42:49;;;;;;;14.30;3.25;;;;;;;9.99;70.14;102242.59;4950627;28;20077;-76
2021/03/29 00:45:18;;;;;;;14.18;3.20;;;;;;;9.99;70.82;102242.59;4946443;28;20042;-76
2021/03/29 00:47:44;;;;;;;13.43;4.32;;;;;;;9.98;70.67;102239.03;4974000;28;20114;-76
2021/03/29 00:50:33;;;;;;;12.77;3.72;;;;;;;9.89;71.20;102238.50;4950683;28;20097;-76
2021/03/29 00:53:05;;;;;;;19.42;4.10;;;;;;;9.93;70.05;102240.16;4954404;28;20041;-77
2021/03/29 00:55:31;;;;;;;19.88;4.28;;;;;;;9.98;70.60;102235.47;4971591;28;20352;-76
2021/03/29 00:57:58;;;;;;;13.13;4.20;;;;;;;9.87;70.84;102235.88;4953162;28;20382;-77
2021/03/29 01:00:30;;;;;;;14.50;3.78;;;;;;;9.86;70.72;102233.25;4951673;28;20130;-77
2021/03/29 01:02:56;;;;;;;19.48;4.93;;;;;;;9.80;70.80;102236.16;4936842;28;20405;-77
2021/03/29 01:05:22;;;;;;;16.67;4.82;;;;;;;9.79;71.02;102229.03;4951493;28;20058;-77
2021/03/29 01:07:51;;;;;;;19.48;3.80;;;;;;;9.78;71.06;102228.16;4956644;28;20034;-77
2021/03/29 01:10:16;;;;;;;16.98;4.63;;;;;;;9.77;70.99;102226.41;4955030;28;20378;-76
2021/03/29 01:12:45;;;;;;;15.55;4.38;;;;;;;9.71;71.35;102240.03;4952452;28;20042;-77
2021/03/29 01:15:14;;;;;;;18.50;3.80;;;;;;;9.82;70.23;102231.59;4951910;28;20061;-77
2021/03/29 01:17:41;;;;;;;16.65;3.95;;;;;;;9.69;70.61;102229.38;4968349;28;20043;-76
2021/03/29 01:20:11;;;;;;;12.05;3.35;;;;;;;9.71;71.14;102227.50;4969208;28;20038;-77
2021/03/29 01:22:47;;;;;;;16.17;3.65;;;;;;;9.73;70.13;102222.97;4967386;28;20041;-76
2021/03/29 01:25:18;;;;;;;19.17;4.93;;;;;;;9.72;70.78;102218.53;4964228;28;20042;-77
2021/03/29 01:27:57;;;;;;;15.77;4.07;;;;;;;9.65;70.97;102221.50;4967756;28;20042;-76
2021/03/29 01:30:23;;;;;;;14.05;3.47;;;;;;;9.76;70.03;102219.28;4966368;28;20043;-77
2021/03/29 01:32:50;;;;;;;16.20;3.70;;;;;;;9.79;69.65;102218.31;4951952;28;20039;-77
2021/03/29 01:35:25;;;;;;;13.45;4.18;;;;;;;9.90;68.96;102226.84;4952938;28;20386;-77
2021/03/29 01:37:51;;;;;;;16.33;4.20;;;;;;;9.73;69.83;102217.63;4967185;28;20038;-76
2021/03/29 01:40:18;;;;;;;9.55;3.92;;;;;;;9.82;69.27;102213.69;4935140;28;20441;-77
2021/03/29 01:42:46;;;;;;;15.85;4.53;;;;;;;9.74;69.71;102214.00;4950825;28;20392;-77
2021/03/29 01:45:12;;;;;;;17.48;3.92;;;;;;;9.86;69.02;102214.47;4946839;28;20034;-77
2021/03/29 01:47:39;;;;;;;13.85;3.95;;;;;;;9.75;69.20;102223.78;4951057;28;20084;-76
2021/03/29 01:50:07;;;;;;;12.13;3.75;;;;;;;9.62;69.83;102222.50;4949410;28;20058;-76
2021/03/29 01:52:34;;;;;;;12.88;3.35;;;;;;;9.61;70.30;102215.38;4951947;28;20117;-76
2021/03/29 01:55:01;;;;;;;11.77;4.30;;;;;;;9.60;70.03;102219.00;4966664;28;20069;-77
2021/03/29 01:57:27;;;;;;;18.05;4.07;;;;;;;9.54;70.61;102229.06;4972572;23;20148;-86
2021/03/29 01:59:53;;;;;;;15.27;4.18;;;;;;;9.60;69.93;102224.34;4975046;28;20796;-86
2021/03/29 02:02:20;;;;;;;12.90;3.55;;;;;;;9.55;70.13;102222.78;4979393;28;20588;-86
2021/03/29 02:04:47;;;;;;;10.88;3.33;;;;;;;9.59;70.07;102227.09;4988949;28;20129;-86
2021/03/29 02:07:14;;;;;;;16.63;3.90;;;;;;;9.70;70.37;102228.44;4990507;28;20113;-86
2021/03/29 02:09:41;;;;;;;14.52;3.30;;;;;;;9.57;70.40;102223.56;4988691;28;20310;-86
2021/03/29 02:12:08;;;;;;;16.42;4.90;;;;;;;9.64;70.41;102231.34;5001357;28;20038;-87
2021/03/29 02:14:35;;;;;;;16.17;3.78;;;;;;;9.69;70.05;102229.38;5007523;28;20520;-86
2021/03/29 02:17:04;;;;;;;16.20;3.83;;;;;;;9.61;70.15;102219.88;5005224;28;20057;-86
2021/03/29 02:19:31;;;;;;;11.30;3.13;;;;;;;9.61;70.00;102226.13;4978708;28;20072;-87
2021/03/29 02:21:57;;;;;;;14.20;3.95;;;;;;;9.74;69.92;102219.38;5007166;28;20037;-87
2021/03/29 02:24:23;;;;;;;13.82;3.95;;;;;;;9.58;70.37;102225.31;4989042;28;20044;-88
2021/03/29 02:26:49;;;;;;;15.30;3.50;;;;;;;9.60;70.25;102224.34;4989286;28;20033;-86
2021/03/29 02:29:27;;;;;;;12.95;3.78;;;;;;;9.86;68.82;102219.84;4985868;28;20073;-87
2021/03/29 02:31:57;;;;;;;12.10;3.45;;;;;;;9.96;68.33;102221.25;4985388;28;20031;-87
2021/03/29 02:34:24;;;;;;;13.88;4.03;;;;;;;9.73;69.30;102214.94;4988696;28;20037;-86
2021/03/29 02:36:52;;;;;;;10.02;2.72;;;;;;;9.66;69.64;102224.13;5006307;28;20550;-86
2021/03/29 02:39:19;;;;;;;11.02;2.92;;;;;;;9.56;69.95;102220.03;4999842;28;20041;-86
2021/03/29 02:41:46;;;;;;;13.30;3.75;;;;;;;9.70;69.88;102220.41;4984930;28;20045;-87
2021/03/29 02:44:12;;;;;;;16.70;3.42;;;;;;;9.74;69.24;102216.69;5021831;28;20042;-86
2021/03/29 02:46:38;;;;;;;15.82;3.15;;;;;;;9.67;70.12;102220.53;5006798;28;20113;-86
2021/03/29 02:49:05;;;;;;;14.38;4.13;;;;;;;9.59;70.21;102217.25;5005707;28;20481;-86
2021/03/29 02:51:32;;;;;;;13.50;3.15;;;;;;;9.51;70.53;102226.47;4993385;28;20037;-86
2021/03/29 02:54:04;;;;;;;11.48;3.20;;;;;;;9.62;70.39;102222.50;4993284;28;20109;-87
2021/03/29 02:56:32;;;;;;;13.05;3.30;;;;;;;9.53;70.82;102224.63;5003644;28;20030;-86
2021/03/29 02:59:06;;;;;;;9.35;2.83;;;;;;;9.50;70.81;102233.66;4988037;28;20065;-86
2021/03/29 03:01:34;;;;;;;8.13;3.05;;;;;;;9.43;71.48;102229.47;4988213;28;20084;-86
2021/03/29 03:04:00;;;;;;;18.08;3.42;;;;;;;9.58;70.98;102244.97;5005196;28;20128;-86
2021/03/29 03:06:31;;;;;;;14.27;2.95;;;;;;;9.56;70.78;102237.94;4991050;28;20034;-87
2021/03/29 03:09:03;;;;;;;15.35;2.97;;;;;;;9.55;70.71;102231.69;4988389;28;20042;-87
2021/03/29 03:11:28;;;;;;;11.27;3.00;;;;;;;9.46;70.85;102232.00;4987348;28;20631;-86
2021/03/29 03:13:55;;;;;;;17.48;3.45;;;;;;;9.47;71.42;102232.88;4984592;28;20026;-86
2021/03/29 03:16:20;;;;;;;13.95;3.55;;;;;;;9.39;71.70;102225.09;5004027;28;20034;-86
2021/03/29 03:18:49;;;;;;;9.93;2.53;;;;;;;9.38;72.01;102230.56;4989649;28;20034;-87
2021/03/29 03:21:19;;;;;;;19.15;2.92;;;;;;;9.36;71.97;102225.22;4989279;28;20513;-86
2021/03/29 03:23:57;;;;;;;15.07;3.25;;;;;;;9.52;70.98;102230.91;5005867;28;20069;-86
2021/03/29 03:26:24;;;;;;;16.95;3.55;;;;;;;9.48;71.53;102230.16;5005944;28;20537;-86
2021/03/29 03:28:51;;;;;;;14.50;2.90;;;;;;;9.47;71.72;102225.72;4983132;28;20066;-86
2021/03/29 03:31:16;;;;;;;8.93;3.08;;;;;;;9.37;71.85;102221.63;4989968;28;20482;-87
2021/03/29 03:33:46;;;;;;;10.63;2.55;;;;;;;9.47;71.96;102225.72;4992205;28;20439;-87
2021/03/29 03:36:13;;;;;;;17.42;3.38;;;;;;;9.44;71.69;102214.25;5020848;28;20470;-86
2021/03/29 03:38:42;;;;;;;12.32;2.97;;;;;;;9.50;71.53;102222.94;4993943;28;20083;-85
2021/03/29 03:41:11;;;;;;;8.20;2.60;;;;;;;9.60;71.59;102223.47;5004965;28;20037;-86
2021/03/29 03:43:43;;;;;;;18.85;3.40;;;;;;;9.54;71.30;102219.22;5005147;28;20038;-86
2021/03/29 03:46:12;;;;;;;9.95;2.70;;;;;;;9.47;71.61;102225.72;5003549;28;20041;-87
2021/03/29 03:48:38;;;;;;;9.75;3.15;;;;;;;9.42;71.80;102221.47;4985465;28;20675;-86
2021/03/29 03:51:08;;;;;;;11.23;2.70;;;;;;;9.36;72.40;102233.28;4987801;28;20507;-86
2021/03/29 03:53:35;;;;;;;15.70;2.88;;;;;;;9.37;72.76;102227.00;5005429;28;20038;-86
2021/03/29 03:56:02;;;;;;;15.00;2.80;;;;;;;9.40;72.77;102232.22;4988911;28;20029;-86
2021/03/29 03:58:29;;;;;;;12.88;2.88;;;;;;;9.44;72.97;102233.00;4984166;28;20046;-89
2021/03/29 04:00:58;;;;;;;11.40;3.60;;;;;;;9.58;72.06;102236.94;4986038;28;20503;-87
2021/03/29 04:03:25;;;;;;;16.63;3.42;;;;;;;9.52;72.56;102226.44;4989862;28;20402;-87
2021/03/29 04:05:50;;;;;;;19.00;3.00;;;;;;;9.56;72.22;102232.56;4985863;28;20045;-86
2021/03/29 04:08:16;;;;;;;12.25;2.83;;;;;;;9.45;72.44;102226.69;4987160;28;20034;-86
2021/03/29 04:10:43;;;;;;;7.20;2.03;;;;;;;9.49;73.14;102234.59;5003698;28;20045;-87
2021/03/29 04:13:13;;;;;;;10.23;2.50;;;;;;;9.36;73.52;102230.59;4989888;28;20038;-86
2021/03/29 04:15:39;;;;;;;5.88;2.50;;;;;;;9.45;72.65;102232.94;4988070;28;20038;-86
2021/03/29 04:18:05;;;;;;;10.32;3.03;;;;;;;9.46;73.36;102236.50;4985593;28;20038;-86
2021/03/29 04:20:30;;;;;;;8.73;2.05;;;;;;;9.51;72.49;102230.03;5005505;28;20094;-86
2021/03/29 04:22:59;;;;;;;15.95;3.17;;;;;;;9.50;72.87;102231.00;5007107;28;20053;-88
2021/03/29 04:25:25;;;;;;;11.43;2.70;;;;;;;9.52;72.83;102237.16;4989546;28;20056;-87
2021/03/29 04:27:50;;;;;;;14.82;2.90;;;;;;;9.60;72.72;102220.78;5001670;28;20042;-86
2021/03/29 04:30:17;;;;;;;6.68;3.05;;;;;;;9.44;73.07;102223.16;4988815;28;20030;-86
2021/03/29 04:32:46;;;;;;;15.90;2.53;;;;;;;9.36;73.64;102224.34;4988447;28;20424;-85
2021/03/29 04:35:12;;;;;;;7.40;2.00;;;;;;;9.41;73.76;102225.94;4988584;28;20045;-87
2021/03/29 04:37:37;;;;;;;10.30;2.47;;;;;;;9.42;73.54;102225.03;4988125;28;20033;-86
2021/03/29 04:40:03;;;;;;;15.90;2.55;;;;;;;9.48;73.45;102235.53;4991735;28;20037;-86
2021/03/29 04:42:29;;;;;;;8.93;2.63;;;;;;;9.52;73.20;102228.22;4988647;28;20176;-86
2021/03/29 04:44:54;;;;;;;11.90;3.00;;;;;;;9.60;72.58;102240.44;4985946;28;20136;-86
2021/03/29 04:47:20;;;;;;;12.45;3.20;;;;;;;9.61;72.68;102231.47;4986678;28;20030;-87
2021/03/29 04:49:45;;;;;;;9.45;2.90;;;;;;;9.46;73.32;102237.38;4985864;28;20050;-87
2021/03/29 04:52:10;;;;;;;11.25;3.72;;;;;;;9.37;73.76;102232.34;4986491;28;20040;-86
2021/03/29 04:54:36;;;;;;;18.00;3.58;;;;;;;9.40;73.89;102240.28;4988991;28;20053;-86
2021/03/29 04:57:33;;;;;;;9.93;3.25;;;;;;;9.47;73.33;102239.13;4988813;28;20041;-86
2021/03/29 04:59:58;;;;;;;13.18;2.95;;;;;;;9.34;74.10;102244.03;5001270;28;20041;-86
2021/03/29 05:02:23;;;;;;;11.90;2.30;;;;;;;9.29;74.76;102250.50;5001702;23;20046;-71
2021/03/29 05:04:49;;;;;;;6.93;1.80;;;;;;;9.42;74.62;102245.59;4978395;28;20034;-71
2021/03/29 05:07:14;;;;;;;6.28;2.33;;;;;;;9.39;74.38;102259.94;4980304;28;20472;-71
2021/03/29 05:09:40;;;;;;;8.73;2.65;;;;;;;9.35;74.44;102250.28;4976806;28;20540;-72
2021/03/29 05:12:17;;;;;;;11.05;2.55;;;;;;;9.37;74.79;102255.59;4981891;28;20042;-71
2021/03/29 05:14:43;;;;;;;13.10;2.20;;;;;;;9.43;74.46;102252.69;4979191;28;20034;-72
2021/03/29 05:17:10;;;;;;;8.25;2.70;;;;;;;9.34;74.87;102256.56;4982125;28;20080;-71
2021/03/29 05:19:36;;;;;;;12.20;3.15;;;;;;;9.32;75.09;102253.03;4996586;28;20046;-71
2021/03/29 05:22:03;;;;;;;9.90;2.00;;;;;;;9.24;75.73;102260.50;4984474;28;20026;-74
2021/03/29 05:24:29;;;;;;;10.98;2.05;;;;;;;9.22;75.65;102271.25;4984954;28;20034;-71
2021/03/29 05:26:54;;;;;;;11.55;2.42;;;;;;;9.23;75.72;102272.13;4982987;28;20089;-71
2021/03/29 05:29:20;;;;;;;10.52;2.30;;;;;;;9.31;75.97;102280.81;4983039;28;20494;-71
2021/03/29 05:31:46;;;;;;;10.25;2.83;;;;;;;9.20;76.20;102283.81;4981089;28;20039;-71
2021/03/29 05:34:14;;;;;;;18.58;3.58;;;;;;;9.30;75.82;102285.28;4983013;28;20092;-71
2021/03/29 05:36:41;;;;;;;13.15;2.47;;;;;;;9.24;76.15;102284.63;4983160;28;20034;-74
2021/03/29 05:39:10;;;;;;;9.98;2.63;;;;;;;9.39;75.87;102278.72;4980553;28;20404;-71
2021/03/29 05:41:38;;;;;;;12.15;3.35;;;;;;;9.24;76.14;102295.34;4980038;28;20119;-72
2021/03/29 05:44:03;;;;;;;9.85;2.65;;;;;;;9.17;76.61;102293.78;4983502;28;20042;-71
2021/03/29 05:46:29;;;;;;;8.45;2.33;;;;;;;9.17;76.85;102307.19;4982613;28;20360;-70
2021/03/29 05:48:55;;;;;;;9.43;2.20;;;;;;;9.17;77.01;102294.66;4995729;28;20491;-72
2021/03/29 05:51:20;;;;;;;10.38;2.53;;;;;;;9.15;76.74;102290.25;4981519;28;20035;-72
2021/03/29 05:53:46;;;;;;;7.18;2.53;;;;;;;9.36;76.45;102294.91;4974563;28;20034;-72
2021/03/29 05:56:13;;;;;;;10.13;2.38;;;;;;;9.29;76.59;102298.72;4984432;28;20126;-72
2021/03/29 05:58:42;;;;;;;11.95;2.30;;;;;;;9.36;76.79;102294.03;4984574;28;20659;-71
2021/03/29 06:01:08;;;;;;;14.35;3.70;;;;;;;9.29;76.42;102307.66;4993860;28;20552;-71
2021/03/29 06:03:40;;;;;;;12.05;2.58;;;;;;;9.27;76.62;102306.81;4981408;28;20073;-71
2021/03/29 06:06:14;;;;;;;12.38;3.22;;;;;;;9.30;76.75;102313.88;4979635;28;20041;-70
2021/03/29 06:08:52;;;;;;;5.90;1.98;;;;;;;9.29;76.71;102314.81;4981985;28;20068;-70
2021/03/29 06:11:36;;;;;;;10.80;2.40;;;;;;;9.32;76.79;102325.41;4985068;28;20046;-71
2021/03/29 06:14:06;;;;;;;13.60;2.35;;;;;;;9.41;76.57;102319.75;4978807;28;20049;-71
2021/03/29 06:16:31;;;;;;;12.50;2.80;;;;;;;9.37;76.75;102319.91;4990057;28;20030;-70
2021/03/29 06:18:57;;;;;;;8.88;2.05;;;;;;;9.41;76.65;102327.78;4982548;28;20046;-72
2021/03/29 06:21:22;;;;;;;12.23;1.75;;;;;;;9.40;76.79;102328.72;4982688;28;20054;-71
2021/03/29 06:23:59;;;;;;;13.45;2.97;;;;;;;9.44;76.80;102330.38;4983027;28;20034;-71
2021/03/29 06:26:32;;;;;;;14.40;2.60;;;;;;;9.54;76.72;102330.94;4979615;28;20042;-71
2021/03/29 06:28:57;;;;;;;;;;;;;;;9.62;76.72;102340.47;4994878;28;20038;-73
2021/03/29 06:31:33;;;;;;;12.43;2.33;;;;;;;9.64;76.61;102333.22;4982572;28;19917;-73
2021/03/29 06:34:00;;;;;;;8.63;2.65;;;;;;;9.77;76.30;102340.84;4985567;28;20081;-70
2021/03/29 06:36:31;;;;;;;13.75;2.92;;;;;;;9.86;75.63;102337.84;4987753;28;20426;-71
2021/03/29 06:39:18;;;;;;;10.75;2.20;;;;;;;10.04;75.19;102342.56;4979826;28;20419;-71
2021/03/29 06:41:56;;;;;;;10.70;2.53;;;;;;;10.28;73.91;102341.69;4986969;28;20064;-71
2021/03/29 06:44:33;;;;;;;11.15;2.42;;;;;;;10.55;72.88;102337.09;5000209;28;20030;-71
2021/03/29 06:47:12;;;;;;;11.85;2.88;;;;;;;10.77;72.33;102339.81;4980894;28;20034;-71
2021/03/29 06:49:42;;;;;;;12.25;2.38;;;;;;;10.98;71.19;102335.41;4982314;28;20049;-74
2021/03/29 06:52:28;;;;;;;7.82;2.00;;;;;;;11.40;69.57;102338.13;4984816;28;20037;-71
2021/03/29 06:55:14;;;;;;;12.32;2.75;;;;;;;11.97;67.03;102343.72;4980143;28;20027;-71
2021/03/29 06:57:40;;;;;;;22.27;3.17;;;;;;;12.80;63.42;102349.75;4978946;28;20073;-71
2021/03/29 07:00:11;;;;;;;10.43;2.67;;;;;;;13.64;60.98;102348.31;4981723;28;20112;-71
2021/03/29 07:02:38;;;;;;;21.08;5.80;;;;;;;14.31;58.06;102347.47;4973887;28;20282;-71
2021/03/29 07:05:05;;;;;;;12.63;3.38;;;;;;;14.70;55.09;102355.22;4981990;28;20048;-72
2021/03/29 07:07:32;;;;;;;8.05;2.20;;;;;;;15.26;53.89;102352.88;4983905;28;20035;-71
2021/03/29 07:09:59;;;;;;;19.40;2.53;;;;;;;15.62;52.36;102358.00;4982037;28;20229;-72
2021/03/29 07:12:31;;;;;;;9.25;1.70;;;;;;;16.04;50.64;102359.97;4987291;28;20036;-72
2021/03/29 07:14:58;;;;;;;4.82;1.80;;;;;;;16.38;50.13;102363.28;4978865;28;20096;-72
2021/03/29 07:17:27;;;;;;;11.30;1.80;;;;;;;16.50;48.84;102359.81;4975494;28;20057;-71
2021/03/29 07:19:54;;;;;;;8.65;2.13;;;;;;;16.69;48.66;102365.84;4981537;28;20667;-72
2021/03/29 07:22:21;;;;;;;9.43;2.58;;;;;;;16.59;48.27;102364.66;4987163;28;20190;-72
2021/03/29 07:24:46;;;;;;;10.02;1.95;;;;;;;16.70;48.41;102370.31;4972994;28;20034;-72
2021/03/29 07:27:15;;;;;;;9.80;2.22;;;;;;;17.15;47.16;102373.72;4998463;28;20038;-71
2021/03/29 07:29:48;;;;;;;11.15;2.67;;;;;;;17.18;46.26;102376.22;4999454;28;20045;-72
2021/03/29 07:32:33;;;;;;;9.40;2.63;;;;;;;17.22;46.25;102372.38;4986130;28;20030;-71
2021/03/29 07:34:59;;;;;;;14.38;3.38;;;;;;;17.18;46.60;102384.38;4983256;28;20038;-72
2021/03/29 07:37:40;;;;;;;8.27;2.55;;;;;;;17.40;46.12;102382.00;4978350;28;20072;-72
2021/03/29 07:40:18;;;;;;;8.27;2.28;;;;;;;17.72;45.76;102387.97;4997358;28;20073;-72
2021/03/29 07:42:44;;;;;;;8.93;2.65;;;;;;;17.91;44.68;102396.63;4978460;28;20038;-72
2021/03/29 07:45:14;;;;;;;12.75;1.90;;;;;;;17.90;44.54;102399.47;4980788;28;20042;-72
2021/03/29 07:47:56;;;;;;;7.38;1.92;;;;;;;17.74;45.19;102407.78;4979705;28;20034;-73
2021/03/29 07:50:24;;;;;;;4.70;2.08;;;;;;;17.99;44.83;102396.97;4983833;28;20533;-72
2021/03/29 07:53:00;;;;;;;8.98;2.58;;;;;;;18.02;44.67;102404.06;4986253;28;20121;-72
2021/03/29 07:55:31;;;;;;;13.18;3.05;;;;;;;18.45;44.25;102402.78;4978290;28;20022;-72
2021/03/29 07:57:56;;;;;;;4.93;1.67;;;;;;;18.30;43.73;102406.59;4986051;28;20205;-72
2021/03/29 08:00:25;;;;;;;11.60;2.22;;;;;;;18.81;44.20;102406.63;4980548;28;20030;-72
2021/03/29 08:02:51;;;;;;;10.85;2.17;;;;;;;19.14;42.83;102409.59;4999439;28;20057;-72
2021/03/29 08:05:48;;;;;;;15.52;3.50;;;;;;;19.40;41.72;102405.81;4982547;28;20030;-72
2021/03/29 08:08:26;;;;;;;9.60;1.88;;;;;;;19.71;41.91;102393.50;4970850;28;20078;-72
2021/03/29 08:10:58;;;;;;;8.75;2.58;;;;;;;19.80;40.75;102402.84;4997315;28;20051;-71
2021/03/29 08:13:44;;;;;;;7.40;2.53;;;;;;;19.58;40.88;102408.16;4989562;28;20042;-73
2021/03/29 08:16:15;;;;;;;12.73;2.40;;;;;;;20.02;41.15;102402.91;4974910;28;20046;-74
2021/03/29 08:19:10;;;;;;;6.78;2.05;;;;;;;19.46;40.89;102414.53;4964850;28;20045;-73
2021/03/29 08:21:42;;;;;;;8.65;2.05;;;;;;;19.55;41.38;102414.72;4977922;28;20030;-73
2021/03/29 08:24:34;;;;;;;10.35;2.30;;;;;;;19.85;41.34;102411.53;4983358;28;20498;-74
2021/03/29 08:27:05;;;;;;;7.97;1.98;;;;;;;20.01;39.34;102422.09;4976116;28;20034;-74
2021/03/29 08:29:34;;;;;;;7.13;1.67;;;;;;;19.77;38.80;102425.72;4977745;28;20038;-73
2021/03/29 08:32:16;;;;;;;10.48;2.13;;;;;;;19.84;38.61;102415.22;4997973;28;20053;-73
2021/03/29 08:34:47;;;;;;;8.52;1.45;;;;;;;19.74;39.11;102419.66;4985968;28;20526;-75
2021/03/29 08:37:16;;;;;;;7.90;1.70;;;;;;;20.30;39.33;102428.03;4979169;28;20061;-74
2021/03/29 08:39:44;;;;;;;6.78;2.60;;;;;;;20.08;37.72;102423.38;4980684;28;20062;-73
2021/03/29 08:42:11;;;;;;;9.18;1.60;;;;;;;20.16;38.35;102426.38;4983479;28;20561;-73
2021/03/29 08:44:38;;;;;;;5.95;1.52;;;;;;;20.70;37.73;102425.78;4983701;28;20038;-73
2021/03/29 08:47:08;;;;;;;7.82;2.22;;;;;;;20.86;37.94;102426.31;4995055;28;20053;-74
2021/03/29 08:49:34;;;;;;;10.07;2.22;;;;;;;21.28;35.71;102435.63;4981603;28;20034;-75
2021/03/29 08:52:00;;;;;;;7.45;1.88;;;;;;;20.93;37.48;102433.84;4980449;28;20454;-74
2021/03/29 08:54:27;;;;;;;9.43;1.77;;;;;;;20.84;34.78;102433.72;4983650;28;20053;-74
2021/03/29 08:57:01;;;;;;;6.85;1.85;;;;;;;20.64;35.12;102435.31;4983655;28;20676;-74
2021/03/29 08:59:28;;;;;;;6.18;1.83;;;;;;;20.65;34.28;102433.47;4960614;28;20045;-73
2021/03/29 09:01:54;;;;;;;7.43;1.60;;;;;;;20.43;35.04;102434.31;4984061;28;20038;-74
2021/03/29 09:04:19;;;;;;;6.72;2.17;;;;;;;20.79;35.94;102435.97;4982517;28;20046;-74
2021/03/29 09:06:45;;;;;;;5.07;1.13;;;;;;;21.15;35.27;102440.31;4982986;28;20031;-75
2021/03/29 09:09:16;;;;;;;9.70;2.05;;;;;;;21.27;35.59;102442.06;4997743;28;20098;-74
2021/03/29 09:11:45;;;;;;;8.27;1.70;;;;;;;21.29;34.44;102440.09;4985452;28;20030;-74
2021/03/29 09:14:12;;;;;;;12.82;2.42;;;;;;;21.16;34.52;102445.69;4983981;28;20066;-73
2021/03/29 09:16:38;;;;;;;7.70;2.17;;;;;;;21.02;33.03;102447.75;4985371;28;20033;-74
2021/03/29 09:19:18;;;;;;;6.93;1.85;;;;;;;20.89;32.72;102451.47;4975652;28;20150;-75
2021/03/29 09:21:52;;;;;;;9.27;1.90;;;;;;;20.93;32.45;102454.81;4982391;28;20150;-74
2021/03/29 09:24:21;;;;;;;9.05;2.10;;;;;;;20.26;33.83;102460.13;4994346;28;20031;-75
2021/03/29 09:27:11;;;;;;;8.10;2.35;;;;;;;20.61;33.53;102451.97;4984537;28;20408;-75
2021/03/29 09:29:43;;;;;;;12.52;2.50;;;;;;;20.63;32.82;102452.69;4987442;28;20027;-74
2021/03/29 09:32:15;;;;;;;10.82;2.13;;;;;;;20.42;32.59;102449.81;4982835;28;20579;-73
2021/03/29 09:34:47;;;;;;;6.07;1.60;;;;;;;20.79;34.34;102455.06;4981504;28;20034;-74
2021/03/29 09:37:31;;;;;;;10.32;1.98;;;;;;;20.58;35.93;102454.91;4978397;28;20614;-74
2021/03/29 09:39:56;;;;;;;7.70;2.03;;;;;;;20.19;33.12;102465.19;4983679;28;20043;-75
2021/03/29 09:42:35;;;;;;;8.00;1.80;;;;;;;20.08;32.87;102459.69;5000220;28;20128;-74
2021/03/29 09:45:00;;;;;;;7.13;2.05;;;;;;;20.30;33.54;102460.78;4978820;28;20530;-75
2021/03/29 09:47:29;;;;;;;8.43;2.20;;;;;;;20.42;33.29;102465.31;4981190;28;20358;-73
2021/03/29 09:49:55;;;;;;;4.00;1.38;;;;;;;20.29;33.50;102464.47;4982739;28;20038;-75
2021/03/29 09:52:33;;;;;;;11.07;2.15;;;;;;;20.24;33.81;102472.16;4997050;28;20054;-75
2021/03/29 09:54:59;;;;;;;7.97;1.77;;;;;;;20.43;32.79;102462.44;4975198;28;20482;-74
2021/03/29 09:57:24;;;;;;;5.57;2.15;;;;;;;20.60;34.85;102458.41;4976235;28;20045;-75
2021/03/29 09:59:52;;;;;;;9.95;1.85;;;;;;;20.31;32.24;102467.94;4983574;28;20073;-75
2021/03/29 10:02:25;;;;;;;18.77;3.08;;;;;;;20.32;33.63;102458.78;4984244;28;20053;-76
2021/03/29 10:05:01;;;;;;;8.65;1.90;;;;;;;20.25;34.17;102463.84;4991102;28;20063;-75
2021/03/29 10:07:28;;;;;;;7.70;1.98;;;;;;;20.28;32.75;102465.47;4973739;28;20035;-74
2021/03/29 10:10:05;;;;;;;7.22;1.70;;;;;;;20.52;33.32;102466.31;4977689;28;20111;-74
2021/03/29 10:12:33;;;;;;;8.98;2.08;;;;;;;20.57;34.03;102466.81;4982116;28;20049;-76
2021/03/29 10:15:11;;;;;;;4.95;1.85;;;;;;;20.51;35.53;102464.56;4975666;28;20045;-74
2021/03/29 10:17:37;;;;;;;7.05;1.70;;;;;;;20.65;33.90;102471.66;4965538;28;20037;-75
2021/03/29 10:20:06;;;;;;;6.63;1.52;;;;;;;20.70;35.00;102469.44;4981381;28;20089;-75
2021/03/29 10:22:32;;;;;;;6.20;2.00;;;;;;;20.59;35.35;102470.28;4961515;28;20030;-75
2021/03/29 10:25:02;;;;;;;8.20;1.73;;;;;;;20.70;34.33;102475.78;4984230;28;20061;-74
2021/03/29 10:27:37;;;;;;;4.50;1.83;;;;;;;20.83;31.17;102476.53;4978037;28;20061;-74
2021/03/29 10:30:09;;;;;;;6.68;1.60;;;;;;;20.86;33.74;102470.81;4982175;28;20503;-75
2021/03/29 10:32:35;;;;;;;4.22;1.55;;;;;;;20.87;31.87;102475.28;4987146;28;20030;-75
2021/03/29 10:35:00;;;;;;;6.13;2.03;;;;;;;20.90;33.74;102477.78;5003194;28;21146;-74
2021/03/29 10:37:30;;;;;;;6.80;1.25;;;;;;;20.98;31.45;102478.03;4991281;28;20068;-75
2021/03/29 10:39:59;;;;;;;5.28;1.50;;;;;;;20.96;33.45;102473.69;4977045;28;20482;-75
2021/03/29 10:42:27;;;;;;;8.38;2.20;;;;;;;20.93;32.33;102480.25;4980027;28;20038;-74
2021/03/29 10:44:54;;;;;;;10.05;2.08;;;;;;;21.00;33.40;102489.69;4984327;28;20499;-75
2021/03/29 10:47:20;;;;;;;10.63;1.80;;;;;;;21.10;32.71;102484.38;4977062;28;20145;-75
2021/03/29 10:49:45;;;;;;;4.88;1.88;;;;;;;21.00;31.97;102488.81;4980715;28;20283;-75
2021/03/29 10:52:11;;;;;;;9.32;1.67;;;;;;;20.67;30.40;102486.06;4976466;28;20376;-75
2021/03/29 10:54:37;;;;;;;4.47;1.70;;;;;;;20.83;30.84;102482.00;4984874;28;20396;-75
2021/03/29 10:57:04;;;;;;;8.55;2.05;;;;;;;20.86;30.15;102483.63;4992934;28;20481;-74
2021/03/29 10:59:29;;;;;;;6.30;1.42;;;;;;;20.91;31.70;102474.06;4986018;28;20103;-75
2021/03/29 11:01:55;;;;;;;6.82;1.60;;;;;;;21.08;31.90;102463.63;4994581;28;20535;-73
2021/03/29 11:04:21;;;;;;;8.23;2.13;;;;;;;21.02;28.93;102465.00;4983307;28;20042;-73
2021/03/29 11:06:46;;;;;;;6.07;1.58;;;;;;;21.14;31.46;102479.53;4980714;28;20048;-75
2021/03/29 11:09:11;;;;;;;8.45;1.70;;;;;;;21.23;30.85;102485.13;4984146;28;20030;-75
2021/03/29 11:11:37;;;;;;;7.30;1.55;;;;;;;21.15;31.17;102475.81;4979936;28;20620;-74
2021/03/29 11:14:03;;;;;;;5.10;1.83;;;;;;;21.21;29.84;102475.34;4983573;28;21827;-75
2021/03/29 11:16:29;;;;;;;7.10;1.52;;;;;;;21.03;30.82;102464.03;4984277;28;20403;-74
2021/03/29 11:18:54;;;;;;;6.63;1.45;;;;;;;21.21;30.97;102467.16;4983170;28;20034;-75
2021/03/29 11:21:20;;;;;;;4.80;1.58;;;;;;;21.14;29.59;102469.47;4983114;28;20046;-74
2021/03/29 11:23:46;;;;;;;11.55;2.05;;;;;;;21.29;30.20;102472.88;4978339;28;20049;-75
2021/03/29 11:26:11;;;;;;;5.45;1.50;;;;;;;21.34;30.79;102459.69;4994841;28;20073;-73
2021/03/29 11:28:37;;;;;;;8.32;2.10;;;;;;;21.31;30.10;102468.13;4980190;28;20120;-75
2021/03/29 11:31:02;;;;;;;7.32;1.90;;;;;;;21.47;30.69;102462.28;4979706;28;20053;-75
2021/03/29 11:33:28;;;;;;;7.18;1.77;;;;;;;21.60;29.53;102465.75;4976021;28;20023;-75